Time;durP1;ratioP1;P1;durP2;ratioP2;P2;SDS_P1;SDS_P2;PMS_P1;PMS_P2;Temp;Humidity;BMP_temperature;BMP_pressure;BME280_temperature;BME280_humidity;BME280_pressure;Samples;Min_cycle;Max_cycle;Signal;HPM_P1;HPM_P2
2021/09/18 00:00:13;;;;;;;3.22;2.72;;;;;;;13.66;93.20;95745.16;6277520;22;20003;-91
2021/09/18 00:02:39;;;;;;;3.00;2.70;;;;;;;13.48;93.63;95727.25;6277190;22;20045;-91
2021/09/18 00:05:05;;;;;;;3.47;2.70;;;;;;;13.48;93.22;95734.69;6276985;22;20008;-92
2021/09/18 00:07:31;;;;;;;4.65;2.58;;;;;;;13.46;93.76;95732.44;6277026;22;20494;-91
2021/09/18 00:09:56;;;;;;;2.75;2.55;;;;;;;13.46;94.22;95737.16;6276600;22;20015;-92
2021/09/18 00:12:22;;;;;;;2.97;2.40;;;;;;;13.48;94.07;95724.53;6276648;22;20015;-92
2021/09/18 00:14:47;;;;;;;3.92;2.90;;;;;;;13.62;93.62;95755.53;6277050;22;20004;-91
2021/09/18 00:17:13;;;;;;;3.92;2.63;;;;;;;13.51;93.72;95739.88;6277337;22;20006;-92
2021/09/18 00:19:39;;;;;;;3.03;2.60;;;;;;;13.46;93.27;95745.31;6276658;22;20498;-92
2021/09/18 00:22:05;;;;;;;3.50;2.83;;;;;;;13.58;93.76;95753.06;6277003;22;20004;-92
2021/09/18 00:24:30;;;;;;;4.30;2.30;;;;;;;13.50;93.86;95754.03;6276974;22;19995;-91
2021/09/18 00:26:56;;;;;;;3.25;2.40;;;;;;;13.50;93.81;95762.97;6276852;22;20061;-91
2021/09/18 00:29:22;;;;;;;4.22;2.63;;;;;;;13.38;93.85;95739.63;6276710;22;20079;-90
2021/09/18 00:31:48;;;;;;;3.75;3.05;;;;;;;13.39;95.09;95748.53;6276845;22;20033;-91
2021/09/18 00:34:13;;;;;;;4.07;2.63;;;;;;;13.41;93.54;95746.78;6276549;22;20022;-91
2021/09/18 00:36:39;;;;;;;3.53;2.70;;;;;;;13.36;94.03;95747.53;6276638;22;20090;-91
2021/09/18 00:39:04;;;;;;;3.22;2.90;;;;;;;13.27;93.44;95745.03;6277142;22;20424;-92
2021/09/18 00:41:30;;;;;;;3.35;2.95;;;;;;;13.31;94.95;95746.25;6276857;22;20008;-91
2021/09/18 00:43:57;;;;;;;3.58;3.13;;;;;;;13.34;94.11;95760.91;6276698;22;20010;-91
2021/09/18 00:46:24;;;;;;;3.50;3.20;;;;;;;13.36;94.52;95764.63;6276926;22;20012;-91
2021/09/18 00:48:49;;;;;;;4.40;3.08;;;;;;;13.27;94.94;95747.75;6276673;22;20069;-91
2021/09/18 00:51:17;;;;;;;4.45;3.35;;;;;;;13.28;95.20;95755.44;6276569;22;20424;-91
2021/09/18 00:53:44;;;;;;;4.50;2.75;;;;;;;13.33;94.56;95760.16;6276644;22;20038;-91
2021/09/18 00:56:10;;;;;;;6.13;3.30;;;;;;;13.29;93.74;95740.56;6276519;22;20007;-91
2021/09/18 00:58:35;;;;;;;4.28;3.47;;;;;;;13.27;94.68;95750.47;6276524;22;20011;-91
2021/09/18 01:01:02;;;;;;;5.30;3.47;;;;;;;13.29;94.96;95756.19;6276661;22;20016;-92
2021/09/18 01:03:28;;;;;;;6.38;3.83;;;;;;;13.19;94.54;95739.25;6276581;22;20006;-91
2021/09/18 01:05:57;;;;;;;3.83;3.35;;;;;;;13.19;95.39;95750.16;6276585;22;20455;-91
2021/09/18 01:08:24;;;;;;;4.40;3.70;;;;;;;13.35;95.21;95756.94;6277933;22;20019;-91
2021/09/18 01:10:51;;;;;;;4.82;3.47;;;;;;;13.10;95.02;95734.75;6276558;22;20007;-92
2021/09/18 01:13:20;;;;;;;4.35;3.75;;;;;;;13.16;95.91;95742.22;6276576;22;20031;-90
2021/09/18 01:15:49;;;;;;;4.97;3.45;;;;;;;13.35;94.05;95748.75;6276681;22;20000;-91
2021/09/18 01:18:16;;;;;;;3.55;3.22;;;;;;;13.10;94.45;95706.72;6276124;22;20716;-91
2021/09/18 01:20:43;;;;;;;3.92;3.53;;;;;;;13.40;94.87;95753.50;6276561;22;20031;-92
2021/09/18 01:23:10;;;;;;;4.18;3.78;;;;;;;13.25;95.18;95736.56;6276616;22;20336;-91
2021/09/18 01:25:38;;;;;;;4.43;3.38;;;;;;;13.31;94.71;95754.44;6276425;22;20004;-91
2021/09/18 01:28:05;;;;;;;4.80;3.70;;;;;;;13.18;95.44;95728.84;6276183;22;20011;-91
2021/09/18 01:30:33;;;;;;;3.60;3.30;;;;;;;13.35;95.29;95752.22;6276664;22;19999;-91
2021/09/18 01:33:01;;;;;;;3.63;3.30;;;;;;;13.16;95.22;95723.88;6277471;22;20482;-91
2021/09/18 01:35:27;;;;;;;5.70;3.58;;;;;;;12.91;94.40;95694.78;6276386;22;20004;-91
2021/09/18 01:37:53;;;;;;;4.05;3.65;;;;;;;13.16;94.89;95734.03;6276129;22;20019;-91
2021/09/18 01:40:32;;;;;;;4.25;3.60;;;;;;;13.26;94.20;95744.28;6276583;22;20004;-92
2021/09/18 01:42:58;;;;;;;6.18;3.00;;;;;;;13.34;93.64;95742.56;6276400;22;20038;-91
2021/09/18 01:45:23;;;;;;;4.55;3.58;;;;;;;13.20;94.03;95720.91;6277711;22;20003;-91
2021/09/18 01:47:56;;;;;;;4.80;3.83;;;;;;;13.20;94.08;95718.19;6276175;22;20000;-91
2021/09/18 01:50:29;;;;;;;5.20;3.28;;;;;;;13.38;93.65;95738.88;6276157;22;20003;-92
2021/09/18 01:53:03;;;;;;;3.70;3.40;;;;;;;13.21;94.40;95717.75;6276069;22;20018;-91
2021/09/18 01:55:29;;;;;;;3.72;3.20;;;;;;;13.18;94.13;95713.22;6276056;22;20065;-92
2021/09/18 01:57:56;;;;;;;4.68;3.70;;;;;;;13.35;93.69;95724.22;6276030;22;20008;-91
2021/09/18 02:00:23;;;;;;;4.22;3.50;;;;;;;13.38;94.19;95714.31;6276145;22;20003;-93
2021/09/18 02:02:50;;;;;;;5.65;3.45;;;;;;;13.34;92.10;95731.66;6275906;22;20043;-91
2021/09/18 02:05:20;;;;;;;6.32;3.95;;;;;;;13.43;92.84;95738.16;6276337;22;20010;-91
2021/09/18 02:07:46;;;;;;;6.88;4.55;;;;;;;13.30;93.42;95720.22;6276309;22;20039;-91
2021/09/18 02:10:14;;;;;;;4.95;4.28;;;;;;;13.27;93.33;95720.47;6275889;22;20081;-90
2021/09/18 02:12:40;;;;;;;8.40;4.88;;;;;;;13.18;94.29;95707.78;6276075;22;20003;-91
2021/09/18 02:15:07;;;;;;;5.47;4.50;;;;;;;13.28;94.39;95705.59;6275970;22;20016;-91
2021/09/18 02:17:33;;;;;;;6.22;4.80;;;;;;;13.41;93.67;95732.41;6276070;22;20003;-91
2021/09/18 02:19:59;;;;;;;9.30;4.00;;;;;;;13.34;94.41;95733.63;6276212;22;20030;-91
2021/09/18 02:22:24;;;;;;;5.20;4.47;;;;;;;13.38;94.70;95730.69;6276075;22;20011;-92
2021/09/18 02:24:50;;;;;;;5.00;4.32;;;;;;;13.03;93.19;95688.13;6276025;22;19996;-91
2021/09/18 02:27:16;;;;;;;5.57;4.50;;;;;;;13.24;94.04;95703.09;6275818;22;20000;-92
2021/09/18 02:29:42;;;;;;;4.43;4.03;;;;;;;13.28;93.97;95728.16;6276328;22;20087;-92
2021/09/18 02:32:07;;;;;;;5.03;4.53;;;;;;;13.13;94.07;95708.50;6276150;22;20004;-91
2021/09/18 02:34:33;;;;;;;6.10;4.15;;;;;;;13.10;93.66;95706.72;6276087;22;20011;-92
2021/09/18 02:36:59;;;;;;;5.80;5.30;;;;;;;13.22;92.25;95721.22;6277588;22;20034;-91
2021/09/18 02:39:24;;;;;;;5.35;4.88;;;;;;;13.20;93.45;95738.00;6278021;22;20075;-91
2021/09/18 02:41:50;;;;;;;5.55;5.03;;;;;;;13.12;93.30;95723.38;6278033;22;20011;-91
2021/09/18 02:44:15;;;;;;;5.93;4.63;;;;;;;13.09;93.77;95713.44;6278192;22;20018;-91
2021/09/18 02:46:41;;;;;;;5.10;4.60;;;;;;;13.18;93.11;95721.41;6277855;22;20390;-91
2021/09/18 02:49:06;;;;;;;5.30;4.80;;;;;;;13.10;93.74;95715.69;6279317;22;20003;-91
2021/09/18 02:51:32;;;;;;;5.05;4.30;;;;;;;13.11;93.59;95717.16;6277805;22;20018;-91
2021/09/18 02:53:59;;;;;;;6.05;4.45;;;;;;;12.98;92.17;95716.84;6277831;22;20003;-92
2021/09/18 02:56:25;;;;;;;5.97;4.47;;;;;;;13.09;93.95;95718.88;6279301;22;20018;-92
2021/09/18 02:58:51;;;;;;;4.75;4.05;;;;;;;13.01;92.85;95717.88;6277791;22;20007;-91
2021/09/18 03:01:16;;;;;;;6.70;4.38;;;;;;;13.11;93.72;95711.72;6277674;22;20339;-91
2021/09/18 03:03:42;;;;;;;5.30;4.30;;;;;;;12.63;91.52;95672.84;6279183;22;20006;-92
2021/09/18 03:06:07;;;;;;;4.95;4.47;;;;;;;12.90;93.21;95696.75;6277991;22;20000;-91
2021/09/18 03:08:33;;;;;;;4.93;4.43;;;;;;;12.98;92.98;95705.94;6277413;22;20506;-91
2021/09/18 03:10:59;;;;;;;4.60;4.20;;;;;;;13.09;93.19;95724.34;6277707;22;20305;-92
2021/09/18 03:13:25;;;;;;;5.63;5.13;;;;;;;13.01;92.99;95709.69;6277749;22;20079;-92
2021/09/18 03:15:51;;;;;;;7.00;4.80;;;;;;;13.09;93.34;95716.91;6277672;22;20008;-91
2021/09/18 03:18:16;;;;;;;5.07;4.65;;;;;;;13.04;90.80;95711.41;6277938;22;20493;-91
2021/09/18 03:20:42;;;;;;;6.40;4.78;;;;;;;13.14;92.26;95712.69;6279120;22;20053;-91
2021/09/18 03:23:08;;;;;;;5.93;5.07;;;;;;;13.11;92.61;95706.25;6277608;22;20003;-92
2021/09/18 03:25:35;;;;;;;5.85;5.38;;;;;;;13.17;93.31;95724.63;6277500;22;20004;-91
2021/09/18 03:28:01;;;;;;;7.05;5.20;;;;;;;12.98;93.38;95700.50;6277561;22;20007;-92
2021/09/18 03:30:27;;;;;;;5.25;4.75;;;;;;;13.08;93.87;95722.84;6277411;22;20004;-91
2021/09/18 03:32:52;;;;;;;5.20;4.80;;;;;;;13.02;93.22;95711.91;6277603;22;20313;-91
2021/09/18 03:35:18;;;;;;;5.93;4.88;;;;;;;12.97;93.36;95701.72;6277455;22;20011;-91
2021/09/18 03:37:44;;;;;;;6.65;4.63;;;;;;;12.99;93.94;95703.97;6277196;22;20432;-93
2021/09/18 03:40:11;;;;;;;6.75;4.75;;;;;;;12.74;94.49;95689.25;6277296;22;20008;-91
2021/09/18 03:42:37;;;;;;;5.00;4.60;;;;;;;12.93;94.28;95714.09;6278880;22;20090;-91
2021/09/18 03:45:05;;;;;;;5.70;4.28;;;;;;;12.83;94.16;95689.03;6277258;22;20026;-91
2021/09/18 03:47:30;;;;;;;5.28;4.78;;;;;;;12.93;93.59;95706.66;6276745;22;20031;-91
2021/09/18 03:49:56;;;;;;;6.55;4.55;;;;;;;12.94;93.17;95701.97;6278697;22;19999;-92
2021/09/18 03:52:25;;;;;;;7.05;4.95;;;;;;;12.91;92.45;95700.22;6277432;22;20012;-92
2021/09/18 03:54:51;;;;;;;5.38;4.68;;;;;;;12.95;92.30;95703.47;6277234;22;20083;-92
2021/09/18 03:57:17;;;;;;;5.65;4.90;;;;;;;12.82;93.43;95703.88;6277480;22;20086;-91
2021/09/18 03:59:42;;;;;;;5.30;4.80;;;;;;;12.76;93.93;95698.41;6277194;22;20014;-92
2021/09/18 04:02:08;;;;;;;5.50;5.00;;;;;;;12.76;93.94;95701.13;6276919;22;20031;-91
2021/09/18 04:04:34;;;;;;;5.82;5.22;;;;;;;12.79;94.26;95715.78;6277170;22;20010;-91
2021/09/18 04:07:00;;;;;;;16.08;5.43;;;;;;;12.69;94.61;95698.88;6276501;22;20008;-91
2021/09/18 04:09:25;;;;;;;5.40;4.90;;;;;;;12.76;93.26;95701.13;6276925;22;20043;-91
2021/09/18 04:11:51;;;;;;;5.30;4.70;;;;;;;12.77;93.85;95704.59;6277082;22;20061;-91
2021/09/18 04:14:17;;;;;;;5.45;4.80;;;;;;;12.81;93.33;95727.66;6277221;22;20004;-92
2021/09/18 04:16:47;;;;;;;6.40;4.97;;;;;;;12.91;93.63;95735.66;6276784;22;20480;-91
2021/09/18 04:19:13;;;;;;;5.25;4.75;;;;;;;12.80;92.88;95707.09;6277282;22;20012;-92
2021/09/18 04:21:39;;;;;;;6.35;4.88;;;;;;;12.80;93.48;95711.81;6276606;22;20018;-92
2021/09/18 04:24:06;;;;;;;5.35;4.85;;;;;;;12.94;93.80;95735.41;6277365;22;20007;-91
2021/09/18 04:26:32;;;;;;;5.95;4.90;;;;;;;12.80;93.78;95726.19;6276873;22;20034;-91
2021/09/18 04:28:59;;;;;;;4.82;4.43;;;;;;;12.95;93.80;95745.09;6276981;22;20004;-92
2021/09/18 04:31:24;;;;;;;6.20;4.75;;;;;;;12.81;93.50;95727.66;6276379;22;20061;-92
2021/09/18 04:33:50;;;;;;;6.10;4.93;;;;;;;12.85;94.05;95741.06;6277043;22;20000;-91
2021/09/18 04:36:16;;;;;;;6.28;5.35;;;;;;;12.84;94.39;95739.59;6277431;22;19999;-91
2021/09/18 04:38:41;;;;;;;5.68;5.07;;;;;;;12.66;95.16;95720.88;6276796;22;20459;-91
2021/09/18 04:41:07;;;;;;;6.45;4.63;;;;;;;12.81;93.78;95743.28;6276904;22;20305;-91
2021/09/18 04:43:33;;;;;;;5.10;4.60;;;;;;;12.70;92.65;95715.97;6276769;22;20007;-91
2021/09/18 04:45:59;;;;;;;6.05;4.90;;;;;;;12.84;93.82;95747.75;6276835;22;20030;-91
2021/09/18 04:48:24;;;;;;;5.68;4.68;;;;;;;12.85;93.05;95735.63;6276868;22;20010;-91
2021/09/18 04:50:50;;;;;;;5.15;4.65;;;;;;;13.01;92.19;95747.84;6276797;22;20007;-91
2021/09/18 04:53:16;;;;;;;5.43;4.93;;;;;;;12.74;92.98;95708.31;6276698;22;19999;-91
2021/09/18 04:55:42;;;;;;;5.30;4.90;;;;;;;12.74;92.60;95709.06;6276618;22;20008;-91
2021/09/18 04:58:08;;;;;;;5.38;4.82;;;;;;;12.83;93.61;95733.38;6276368;22;20008;-91
2021/09/18 05:00:34;;;;;;;6.05;5.20;;;;;;;12.63;93.54;95706.28;6276938;22;20011;-91
2021/09/18 05:02:59;;;;;;;6.38;5.07;;;;;;;12.61;93.46;95719.63;6276268;22;20086;-92
2021/09/18 05:05:25;;;;;;;5.65;5.15;;;;;;;12.79;94.41;95746.50;6276689;22;20034;-92
2021/09/18 05:07:50;;;;;;;5.75;5.00;;;;;;;12.92;93.82;95761.66;6276276;22;20008;-91
2021/09/18 05:10:16;;;;;;;6.60;5.43;;;;;;;12.81;93.54;95738.56;6277732;22;20019;-91
2021/09/18 05:12:41;;;;;;;6.63;5.30;;;;;;;13.02;92.86;95762.97;6276452;22;20377;-91
2021/09/18 05:15:08;;;;;;;5.78;5.28;;;;;;;12.86;91.25;95756.19;6276396;22;20039;-91
2021/09/18 05:17:34;;;;;;;5.72;4.82;;;;;;;12.75;92.83;95720.69;6276419;22;20011;-91
2021/09/18 05:20:00;;;;;;;6.07;5.10;;;;;;;12.74;92.11;95719.97;6276410;22;20129;-91
2021/09/18 05:22:26;;;;;;;6.32;5.68;;;;;;;12.89;90.77;95746.28;6276398;22;20003;-91
2021/09/18 05:24:51;;;;;;;6.07;5.47;;;;;;;12.82;90.67;95756.41;6276594;22;20078;-91
2021/09/18 05:27:18;;;;;;;6.03;5.43;;;;;;;12.94;92.19;95762.66;6276549;22;20455;-91
2021/09/18 05:29:44;;;;;;;5.90;5.22;;;;;;;12.86;92.02;95742.56;6276235;22;20007;-91
2021/09/18 05:32:13;;;;;;;6.18;5.65;;;;;;;12.85;93.41;95739.09;6276420;22;20083;-92
2021/09/18 05:34:40;;;;;;;6.30;5.70;;;;;;;12.91;92.84;95750.03;6276270;22;20014;-90
2021/09/18 05:37:05;;;;;;;6.03;5.40;;;;;;;12.87;92.72;95741.31;6276273;22;20008;-91
2021/09/18 05:39:31;;;;;;;6.72;5.97;;;;;;;12.90;92.50;95736.88;6276326;22;20081;-90
2021/09/18 05:41:57;;;;;;;6.40;5.75;;;;;;;12.78;92.46;95725.16;6276321;22;20025;-91
2021/09/18 05:44:23;;;;;;;6.30;5.70;;;;;;;12.93;93.58;95755.72;6276261;22;20086;-91
2021/09/18 05:46:49;;;;;;;6.57;5.53;;;;;;;13.01;92.10;95770.41;6277413;22;20054;-91
2021/09/18 05:49:15;;;;;;;5.97;5.40;;;;;;;12.96;92.83;95748.56;6276120;22;20003;-90
2021/09/18 05:51:41;;;;;;;6.30;5.75;;;;;;;13.07;92.07;95754.06;6276121;22;20305;-93
2021/09/18 05:54:07;;;;;;;6.85;5.43;;;;;;;13.08;92.66;95741.94;6276002;22;20054;-93
2021/09/18 05:56:32;;;;;;;6.60;5.82;;;;;;;13.05;92.82;95751.84;6276200;22;20007;-92
2021/09/18 05:59:01;;;;;;;6.22;5.63;;;;;;;13.08;91.69;95753.56;6276411;22;20008;-93
2021/09/18 06:01:27;;;;;;;5.85;5.35;;;;;;;13.26;91.48;95765.31;6276338;22;20018;-92
2021/09/18 06:03:53;;;;;;;6.47;5.25;;;;;;;13.09;95.56;95752.34;6276362;22;20008;-94
2021/09/18 06:06:18;;;;;;;5.90;5.30;;;;;;;13.05;91.28;95746.38;6276339;22;20355;-94
2021/09/18 06:08:44;;;;;;;7.57;5.30;;;;;;;13.06;94.07;95720.63;6275797;22;20049;-92
2021/09/18 06:11:10;;;;;;;6.25;5.15;;;;;;;13.41;91.95;95765.16;6278206;22;20003;-92
2021/09/18 06:13:35;;;;;;;5.97;5.40;;;;;;;13.21;88.82;95763.28;6278289;22;20039;-91
2021/09/18 06:16:01;;;;;;;6.28;5.53;;;;;;;13.04;89.93;95747.59;6277978;22;20046;-91
2021/09/18 06:18:27;;;;;;;6.97;5.25;;;;;;;13.12;91.39;95750.63;6278339;22;20034;-91
2021/09/18 06:20:52;;;;;;;6.65;5.93;;;;;;;13.04;91.00;95750.31;6278344;22;20065;-91
2021/09/18 06:23:18;;;;;;;6.53;5.93;;;;;;;13.05;91.71;95757.28;6277857;22;20479;-90
2021/09/18 06:25:44;;;;;;;6.00;5.50;;;;;;;13.11;89.87;95757.31;6279429;22;20057;-92
2021/09/18 06:28:09;;;;;;;5.78;5.03;;;;;;;13.06;90.03;95750.59;6278041;22;19999;-91
2021/09/18 06:30:35;;;;;;;5.85;5.25;;;;;;;13.28;90.90;95766.34;6277839;22;20065;-92
2021/09/18 06:33:00;;;;;;;6.30;5.70;;;;;;;13.19;90.66;95763.03;6277989;22;20049;-91
2021/09/18 06:35:26;;;;;;;6.18;5.45;;;;;;;13.09;91.08;95754.31;6278092;22;20054;-91
2021/09/18 06:37:51;;;;;;;5.75;5.25;;;;;;;13.19;91.22;95774.69;6278477;22;20022;-90
2021/09/18 06:40:19;;;;;;;16.35;6.32;;;;;;;13.14;93.23;95778.13;6278613;22;20003;-91
2021/09/18 06:42:48;;;;;;;6.38;5.78;;;;;;;13.29;91.96;95789.66;6283508;22;20024;-91
2021/09/18 06:45:14;;;;;;;6.95;6.00;;;;;;;13.16;92.42;95764.78;6278974;22;20370;-93
2021/09/18 06:47:40;;;;;;;6.85;6.20;;;;;;;13.17;91.46;95768.25;6277940;22;20007;-92
2021/09/18 06:50:07;;;;;;;6.70;6.10;;;;;;;13.29;91.94;95780.72;6280304;22;20309;-93
2021/09/18 06:52:33;;;;;;;6.43;5.82;;;;;;;13.30;91.28;95776.75;6277644;22;20007;-92
2021/09/18 06:54:59;;;;;;;9.05;6.55;;;;;;;13.32;91.86;95777.78;6278805;22;20007;-92
2021/09/18 06:57:24;;;;;;;8.13;7.32;;;;;;;13.31;88.27;95780.97;6277689;22;20028;-91
2021/09/18 06:59:52;;;;;;;7.45;6.75;;;;;;;13.25;87.65;95782.94;6277316;22;20004;-91
2021/09/18 07:02:18;;;;;;;8.23;7.40;;;;;;;13.18;89.63;95764.28;6277682;22;20003;-93
2021/09/18 07:04:43;;;;;;;7.82;6.97;;;;;;;13.30;89.08;95784.94;6277712;22;20487;-92
2021/09/18 07:07:09;;;;;;;6.80;6.10;;;;;;;13.25;86.21;95772.03;6277696;22;20007;-91
2021/09/18 07:09:35;;;;;;;7.03;6.32;;;;;;;13.30;87.38;95768.56;6277542;22;20439;-92
2021/09/18 07:12:00;;;;;;;7.60;6.88;;;;;;;13.33;85.19;95764.88;6277798;22;20069;-91
2021/09/18 07:14:26;;;;;;;9.60;7.00;;;;;;;13.45;86.87;95776.56;6277394;22;20313;-92
2021/09/18 07:16:51;;;;;;;7.50;6.80;;;;;;;13.41;86.27;95767.88;6277749;22;20004;-90
2021/09/18 07:19:17;;;;;;;7.45;6.50;;;;;;;13.46;84.94;95772.59;6277563;22;20015;-92
2021/09/18 07:21:43;;;;;;;7.63;6.82;;;;;;;13.41;87.58;95765.88;6277235;22;20071;-93
2021/09/18 07:24:09;;;;;;;6.68;6.07;;;;;;;13.49;85.42;95772.38;6277136;22;19999;-93
2021/09/18 07:26:36;;;;;;;6.43;5.82;;;;;;;13.47;86.07;95772.09;6276542;22;20065;-91
2021/09/18 07:29:02;;;;;;;6.63;5.45;;;;;;;13.53;84.54;95793.94;6278355;22;20026;-90
2021/09/18 07:31:27;;;;;;;6.28;5.45;;;;;;;13.24;84.80;95771.28;6277184;22;20347;-90
2021/09/18 07:33:53;;;;;;;7.20;5.93;;;;;;;13.34;86.15;95774.53;6276293;22;20091;-91
2021/09/18 07:36:19;;;;;;;6.18;5.68;;;;;;;13.25;85.46;95778.22;6276690;22;20011;-90
2021/09/18 07:38:44;;;;;;;6.88;6.13;;;;;;;13.30;86.94;95779.47;6277188;22;20074;-90
2021/09/18 07:41:10;;;;;;;6.30;5.80;;;;;;;13.34;85.86;95790.91;6280577;22;20068;-92
2021/09/18 07:43:36;;;;;;;7.32;6.63;;;;;;;13.35;88.31;95779.50;6277465;22;20079;-91
2021/09/18 07:46:02;;;;;;;7.05;6.35;;;;;;;13.43;87.18;95789.97;6277053;22;20061;-91
2021/09/18 07:48:30;;;;;;;7.63;6.70;;;;;;;13.20;88.60;95761.81;6277489;22;20065;-91
2021/09/18 07:51:00;;;;;;;8.63;6.53;;;;;;;13.38;89.69;95805.06;6277209;22;20011;-92
2021/09/18 07:53:25;;;;;;;8.70;7.10;;;;;;;13.26;89.52;95777.00;6276930;22;20015;-91
2021/09/18 07:55:51;;;;;;;7.82;7.03;;;;;;;13.23;88.51;95777.97;6277407;22;20003;-91
2021/09/18 07:58:17;;;;;;;10.30;6.88;;;;;;;13.32;87.49;95794.13;6277055;22;19999;-90
2021/09/18 08:00:44;;;;;;;7.82;6.85;;;;;;;13.20;85.47;95784.34;6277165;22;20053;-90
2021/09/18 08:03:09;;;;;;;6.97;6.28;;;;;;;13.49;88.77;95810.56;6277141;22;20000;-91
2021/09/18 08:05:35;;;;;;;7.82;7.03;;;;;;;13.33;87.52;95779.25;6276860;22;20008;-91
2021/09/18 08:08:01;;;;;;;7.75;7.05;;;;;;;13.38;87.16;95782.50;6276677;22;20003;-90
2021/09/18 08:10:27;;;;;;;6.95;5.88;;;;;;;13.38;87.16;95782.50;6276330;22;20057;-90
2021/09/18 08:12:53;;;;;;;5.32;4.00;;;;;;;13.43;75.86;95809.81;6278748;22;20046;-90
2021/09/18 08:15:20;;;;;;;6.30;3.97;;;;;;;13.47;76.32;95801.38;6251444;22;20007;-91
2021/09/18 08:17:46;;;;;;;4.55;4.25;;;;;;;13.47;76.32;95801.38;6276217;22;20423;-91
2021/09/18 08:20:14;;;;;;;4.47;4.00;;;;;;;13.47;76.32;95801.38;6277008;22;20050;-91
2021/09/18 08:22:40;;;;;;;7.50;3.20;;;;;;;13.47;76.32;95801.38;6275995;22;20003;-89
2021/09/18 08:25:07;;;;;;;3.30;3.00;;;;;;;13.51;74.12;95775.34;6275684;22;20011;-89
2021/09/18 08:27:33;;;;;;;4.38;2.97;;;;;;;13.51;74.12;95775.34;6277173;22;20007;-90
2021/09/18 08:29:59;;;;;;;4.47;2.90;;;;;;;13.87;100.00;95811.19;6276022;22;20004;-89
2021/09/18 08:32:24;;;;;;;5.03;3.03;;;;;;;13.66;78.75;95777.16;6275153;22;20011;-91
2021/09/18 08:34:50;;;;;;;3.25;2.50;;;;;;;13.70;100.00;68426.72;6275719;22;20087;-90
2021/09/18 08:37:17;;;;;;;3.83;2.60;;;;;;;13.70;75.40;95791.31;6276218;22;20008;-91
2021/09/18 08:40:02;;;;;;;5.47;2.78;;;;;;;13.82;77.13;95811.94;6276103;22;20000;-90
2021/09/18 08:42:28;;;;;;;7.00;2.95;;;;;;;13.75;79.48;95796.78;6275499;22;20449;-90
2021/09/18 08:44:54;;;;;;;5.30;2.60;;;;;;;13.75;77.60;95798.75;6275873;22;20000;-92
2021/09/18 08:47:22;;;;;;;5.35;2.60;;;;;;;13.86;77.77;95804.25;6277392;22;20004;-91
2021/09/18 08:49:48;;;;;;;4.05;2.00;;;;;;;13.79;75.51;95802.72;6276159;22;20178;-90
2021/09/18 08:52:14;;;;;;;4.20;2.05;;;;;;;13.94;73.43;95816.16;6276128;22;20431;-91
2021/09/18 08:54:40;;;;;;;2.35;2.00;;;;;;;13.99;75.59;95801.78;6276424;22;20012;-89
2021/09/18 08:57:07;;;;;;;4.88;2.80;;;;;;;13.99;75.59;95801.78;6276070;22;20761;-90
2021/09/18 08:59:39;;;;;;;4.47;2.25;;;;;;;14.04;77.21;95794.84;6276348;22;20038;-90
2021/09/18 09:02:12;;;;;;;3.17;1.70;;;;;;;14.25;73.64;95812.50;6276107;22;20007;-91
2021/09/18 09:04:38;;;;;;;3.97;1.95;;;;;;;14.31;74.61;95807.78;6275824;22;20053;-90
2021/09/18 09:07:03;;;;;;;4.70;2.10;;;;;;;14.35;74.24;95791.16;6276095;22;20007;-91
2021/09/18 09:09:59;;;;;;;6.68;2.47;;;;;;;-145.61;100.00;68426.72;6276008;22;20084;-90
2021/09/18 09:12:32;;;;;;;2.80;1.80;;;;;;;14.63;73.14;95815.78;6274911;22;20037;-92
2021/09/18 09:15:00;;;;;;;3.40;2.15;;;;;;;14.63;72.69;95797.41;6275118;22;20007;-91
2021/09/18 09:17:29;;;;;;;2.35;2.10;;;;;;;14.63;72.69;95797.41;6276141;22;20446;-90
2021/09/18 09:19:56;;;;;;;3.50;2.10;;;;;;;14.98;72.79;95809.06;6276499;22;20004;-90
2021/09/18 09:22:47;;;;;;;2.42;1.90;;;;;;;15.07;71.54;95817.72;6275538;22;20004;-91
2021/09/18 09:25:31;;;;;;;;;;;;;;;15.00;70.17;95801.09;6275756;22;20003;-90
2021/09/18 09:27:59;;;;;;;3.47;2.10;;;;;;;14.97;71.74;95793.88;6275835;22;19964;-90
2021/09/18 09:30:30;;;;;;;4.78;2.08;;;;;;;15.02;70.93;95795.88;6275185;22;20003;-89
2021/09/18 09:33:05;;;;;;;3.53;2.22;;;;;;;15.13;70.32;95804.81;6275452;22;20004;-91
2021/09/18 09:35:31;;;;;;;3.97;2.10;;;;;;;15.09;70.08;95798.09;6274985;22;20012;-90
2021/09/18 09:37:57;;;;;;;3.58;2.05;;;;;;;15.08;69.32;95789.16;6274936;22;20114;-90
2021/09/18 09:40:45;;;;;;;2.13;1.80;;;;;;;15.32;70.58;95810.47;6274513;22;20008;-89
2021/09/18 09:43:13;;;;;;;2.80;1.90;;;;;;;15.28;69.22;95803.75;6275678;22;20003;-91
2021/09/18 09:45:39;;;;;;;5.35;1.92;;;;;;;15.23;68.98;95788.84;6275702;22;20387;-90
2021/09/18 09:48:25;;;;;;;3.65;2.30;;;;;;;15.34;68.31;95799.00;6275858;22;20003;-90
2021/09/18 09:51:01;;;;;;;4.45;2.15;;;;;;;15.26;69.36;95806.25;6275385;22;20452;-90
2021/09/18 09:53:27;;;;;;;4.32;2.10;;;;;;;15.12;68.84;95786.88;6275720;22;20000;-90
2021/09/18 09:55:53;;;;;;;4.60;2.03;;;;;;;15.00;68.86;95777.22;6275634;22;20061;-90
2021/09/18 09:58:19;;;;;;;3.13;2.30;;;;;;;14.80;71.31;95778.25;6275958;22;20371;-89
2021/09/18 10:00:49;;;;;;;3.30;2.35;;;;;;;14.58;70.46;95759.91;6275514;22;20000;-90
2021/09/18 10:03:15;;;;;;;;;;;;;;;14.79;67.65;95803.34;6276517;22;20004;-90
2021/09/18 10:05:41;;;;;;;2.17;2.03;;;;;;;14.61;70.90;95790.97;6276226;22;20360;-90
2021/09/18 10:08:07;;;;;;;4.35;2.30;;;;;;;14.65;70.86;95796.94;6275172;22;20079;-91
2021/09/18 10:10:33;;;;;;;2.58;2.38;;;;;;;14.57;70.86;95799.41;6275120;22;20486;-92
2021/09/18 10:13:00;;;;;;;2.60;2.40;;;;;;;14.38;72.05;95792.91;6275645;22;20061;-90
2021/09/18 10:15:28;;;;;;;3.08;2.38;;;;;;;14.28;72.53;95775.28;6275831;22;20011;-90
2021/09/18 10:17:55;;;;;;;3.08;2.78;;;;;;;14.16;73.11;95769.78;6275477;22;20010;-89
2021/09/18 10:25:38;;;;;;;3.30;3.00;;;;;;;14.11;74.95;95780.72;6277315;22;20455;-90
2021/09/18 10:28:40;;;;;;;4.97;3.05;;;;;;;14.30;73.43;95802.84;6276068;22;20007;-91
2021/09/18 10:31:24;;;;;;;5.15;2.65;;;;;;;14.08;72.38;95789.91;6274511;22;20006;-91
2021/09/18 10:33:52;;;;;;;4.05;2.72;;;;;;;13.97;73.08;95779.72;6275179;22;20045;-91
2021/09/18 10:36:30;;;;;;;3.42;2.63;;;;;;;14.08;72.79;95795.38;6275609;22;20004;-89
2021/09/18 10:39:17;;;;;;;2.95;2.65;;;;;;;14.01;72.80;95793.88;6274868;22;20030;-91
2021/09/18 10:41:44;;;;;;;4.22;3.00;;;;;;;14.00;73.77;95805.25;6275572;22;20007;-91
2021/09/18 10:44:10;;;;;;;3.97;3.10;;;;;;;13.89;74.67;95778.69;6275819;22;20004;-92
2021/09/18 10:47:05;;;;;;;5.50;3.17;;;;;;;13.88;75.69;95801.75;6275864;22;20090;-92
2021/09/18 10:49:34;;;;;;;4.45;3.40;;;;;;;13.98;75.42;95800.31;6261626;22;20004;-91
2021/09/18 10:52:18;;;;;;;4.15;3.72;;;;;;;14.04;74.16;95798.31;6275690;22;20035;-91
2021/09/18 10:55:08;;;;;;;6.13;4.35;;;;;;;13.92;71.87;95801.53;6279382;22;20075;-89
2021/09/18 10:57:42;;;;;;;4.85;3.50;;;;;;;13.82;71.39;95798.28;6276729;22;20007;-91
2021/09/18 11:00:32;;;;;;;3.80;3.40;;;;;;;13.54;71.01;95785.28;6285556;22;20094;-90
2021/09/18 11:03:00;;;;;;;4.20;3.80;;;;;;;13.81;71.70;95800.25;6277598;22;20321;-91
2021/09/18 11:05:25;;;;;;;4.07;3.67;;;;;;;13.72;71.83;95799.72;6277768;22;20064;-91
2021/09/18 11:07:55;;;;;;;5.43;3.63;;;;;;;13.89;73.53;95804.00;6277593;22;20012;-91
2021/09/18 11:10:21;;;;;;;5.40;3.53;;;;;;;13.88;72.80;95799.78;6277585;22;20022;-91
2021/09/18 11:13:09;;;;;;;4.25;3.05;;;;;;;13.81;72.01;95785.88;6277575;22;20007;-91
2021/09/18 11:15:50;;;;;;;3.67;3.28;;;;;;;14.00;75.25;95795.09;6277006;22;20089;-92
2021/09/18 11:18:17;;;;;;;4.75;3.42;;;;;;;14.03;72.09;95799.56;6277212;22;20004;-91
2021/09/18 11:20:43;;;;;;;5.72;3.80;;;;;;;14.02;72.96;95800.81;6277406;22;20454;-91
2021/09/18 11:23:10;;;;;;;4.43;3.22;;;;;;;13.82;70.54;95787.34;6277408;22;20070;-91
2021/09/18 11:25:44;;;;;;;6.05;3.28;;;;;;;13.93;71.70;95779.19;6277335;22;20003;-91
2021/09/18 11:28:12;;;;;;;3.33;3.03;;;;;;;13.96;73.09;95780.22;6278715;22;20000;-92
2021/09/18 11:30:45;;;;;;;5.10;3.33;;;;;;;14.12;72.29;95788.41;6276583;22;20338;-91
2021/09/18 11:33:16;;;;;;;4.30;3.67;;;;;;;14.26;74.23;95802.31;6276970;22;20008;-92
2021/09/18 11:35:57;;;;;;;4.07;3.45;;;;;;;14.16;73.20;95774.50;6277623;22;20007;-90
2021/09/18 11:38:25;;;;;;;4.70;3.20;;;;;;;14.18;73.98;95784.97;6277476;22;19999;-91
2021/09/18 11:40:51;;;;;;;4.72;3.35;;;;;;;13.93;72.41;95751.16;6276759;22;20004;-92